Dies, Texas
Current Conditions -  °F | °C
As of 1:55 AM on Sunday 26 Oct 2014 (Local Time) from KJAS Reporting Station
Haze Haze  
Wind Chill: 53°   Ceiling: 700
Heat Index: 53°   Visibility: 1mi
Dew Point: 53°   Wind: 0mph
Humidity: 98%   Direction: NA
Pressure: 30.09"   Gusts: NA
Location:  30.7643°N, 94.4448°W
Report Text: KJAS 260655Z AUTO 00000KT 1SM BR VV007 12/12 A3009 RMK AO2 T01190116
Loading
Personal Weather Stations






























Interactive Weather Map New forecast layout! Learn more

10-Day Weather Forecast

Advertisements
Track Severe Weather on mobile